createdAt,value
2019-02-21T00:00:57.675Z,90.72
2019-02-21T00:03:45.440Z,89.56
2019-02-21T00:06:34.515Z,89.20
2019-02-21T00:09:23.056Z,88.52
2019-02-21T00:12:10.712Z,89.23
2019-02-21T00:14:59.095Z,89.70
2019-02-21T00:17:47.200Z,89.67
2019-02-21T00:20:35.688Z,89.63
2019-02-21T00:23:23.700Z,89.55
2019-02-21T00:26:11.717Z,90.10
2019-02-21T00:29:02.527Z,90.84
2019-02-21T00:31:51.059Z,93.23
2019-02-21T00:34:39.219Z,94.85
2019-02-21T00:37:27.475Z,94.45
2019-02-21T00:40:15.832Z,93.74
2019-02-21T00:43:04.171Z,92.59
2019-02-21T00:45:52.616Z,92.31
2019-02-21T00:48:40.304Z,91.66
2019-02-21T00:51:28.120Z,90.95
2019-02-21T00:54:15.966Z,90.31
2019-02-21T00:57:04.052Z,90.02
2019-02-21T00:59:53.662Z,90.78
2019-02-21T01:02:41.996Z,92.87
2019-02-21T01:05:31.549Z,93.78
2019-02-21T01:08:20.103Z,95.28
2019-02-21T01:11:08.887Z,97.70
2019-02-21T01:13:57.057Z,96.49
2019-02-21T01:16:45.455Z,96.23
2019-02-21T01:19:33.561Z,96.19
2019-02-21T01:22:21.403Z,95.44
2019-02-21T01:25:09.427Z,95.26
2019-02-21T01:27:57.275Z,94.28
2019-02-21T01:30:45.582Z,93.99
2019-02-21T01:33:33.374Z,93.48
2019-02-21T01:36:21.915Z,92.73
2019-02-21T01:39:10.471Z,92.46
2019-02-21T01:41:58.840Z,91.12
2019-02-21T01:44:47.003Z,90.71
2019-02-21T01:47:34.966Z,91.31
2019-02-21T01:50:23.575Z,91.32
2019-02-21T01:53:11.960Z,92.72
2019-02-21T01:55:59.961Z,92.40
2019-02-21T01:58:47.962Z,91.92
2019-02-21T02:01:36.271Z,92.07
2019-02-21T02:04:24.567Z,94.19
2019-02-21T02:07:12.854Z,94.29
2019-02-21T02:10:01.277Z,93.49
2019-02-21T02:12:49.066Z,94.26
2019-02-21T02:15:37.595Z,94.00
2019-02-21T02:18:26.444Z,94.13
2019-02-21T02:21:14.577Z,93.58
2019-02-21T02:24:02.940Z,93.61
2019-02-21T02:26:51.647Z,93.21
2019-02-21T02:29:39.666Z,92.38
2019-02-21T02:32:27.996Z,93.88
2019-02-21T02:35:16.118Z,96.42
2019-02-21T02:38:04.515Z,95.81
2019-02-21T02:40:52.324Z,95.38
2019-02-21T02:43:40.756Z,94.37
2019-02-21T02:46:28.879Z,94.52
2019-02-21T02:49:17.036Z,94.90
2019-02-21T02:52:05.662Z,93.94
2019-02-21T02:54:53.844Z,93.62
2019-02-21T02:57:41.805Z,93.21
2019-02-21T03:00:30.706Z,92.98
2019-02-21T03:03:19.241Z,92.40
2019-02-21T03:06:07.635Z,92.84
2019-02-21T03:08:55.431Z,93.47
2019-02-21T03:11:43.814Z,93.88
2019-02-21T03:14:32.008Z,92.94
2019-02-21T03:17:20.456Z,94.97
2019-02-21T03:20:09.041Z,94.84
2019-02-21T03:22:56.783Z,94.10
2019-02-21T03:25:45.302Z,95.52
2019-02-21T03:28:33.534Z,96.41
2019-02-21T03:31:21.639Z,96.08
2019-02-21T03:34:09.712Z,95.97
2019-02-21T03:36:57.894Z,96.05
2019-02-21T03:39:46.437Z,97.53
2019-02-21T03:42:34.475Z,98.10
2019-02-21T03:45:22.808Z,97.29
2019-02-21T03:48:10.472Z,98.06
2019-02-21T03:50:58.881Z,97.94
2019-02-21T03:53:47.431Z,96.89
2019-02-21T03:56:35.530Z,96.10
2019-02-21T03:59:23.675Z,96.25
2019-02-21T04:02:11.868Z,95.93
2019-02-21T04:05:00.014Z,95.53
2019-02-21T04:07:48.152Z,95.70
2019-02-21T04:10:36.635Z,95.65
2019-02-21T04:13:24.706Z,95.46
2019-02-21T04:16:13.327Z,96.61
2019-02-21T04:19:01.626Z,98.75
2019-02-21T04:21:49.644Z,100.00
2019-02-21T04:24:37.739Z,100.00
2019-02-21T04:27:25.811Z,100.00
2019-02-21T04:30:14.238Z,99.62
2019-02-21T04:33:02.079Z,98.16
2019-02-21T04:35:50.195Z,96.59
2019-02-21T04:38:38.654Z,96.99
2019-02-21T04:41:26.709Z,97.18
2019-02-21T04:44:14.793Z,96.36
2019-02-21T04:47:05.040Z,96.37
2019-02-21T04:49:53.199Z,95.36
2019-02-21T04:52:41.652Z,94.86
2019-02-21T04:55:29.280Z,95.33
2019-02-21T04:58:17.378Z,96.87
2019-02-21T05:01:05.831Z,98.34
2019-02-21T05:03:54.304Z,99.54
2019-02-21T05:06:42.620Z,99.61
2019-02-21T05:09:31.907Z,99.51
2019-02-21T05:12:20.896Z,100.00
2019-02-21T05:15:09.308Z,99.80
2019-02-21T05:17:57.137Z,99.92
2019-02-21T05:20:45.340Z,98.51
2019-02-21T05:23:33.226Z,98.14
2019-02-21T05:26:32.654Z,97.11
2019-02-21T05:29:20.783Z,97.75
2019-02-21T05:32:27.227Z,97.40
2019-02-21T05:35:32.933Z,97.28
2019-02-21T05:38:57.887Z,97.32
2019-02-21T05:41:54.119Z,97.23
2019-02-21T05:44:47.277Z,97.05
2019-02-21T05:47:40.468Z,96.92
2019-02-21T05:50:36.182Z,97.36
2019-02-21T05:53:42.128Z,96.99
2019-02-21T05:56:39.798Z,96.27
2019-02-21T05:59:43.643Z,94.74
2019-02-21T06:02:52.541Z,94.63
2019-02-21T06:05:46.869Z,92.82
2019-02-21T06:09:06.060Z,92.10
2019-02-21T06:12:02.367Z,91.32
2019-02-21T06:15:12.231Z,90.63
2019-02-21T06:18:17.920Z,87.64
2019-02-21T06:21:24.928Z,88.28
2019-02-21T06:24:27.595Z,87.30
2019-02-21T06:27:29.475Z,86.19
2019-02-21T06:30:36.803Z,84.76
2019-02-21T06:33:24.984Z,84.51
2019-02-21T06:36:13.322Z,82.60
2019-02-21T06:39:01.685Z,81.40
2019-02-21T06:41:59.206Z,80.19
2019-02-21T06:44:39.512Z,81.69
2019-02-21T06:47:27.668Z,79.54
2019-02-21T06:50:15.306Z,80.79
2019-02-21T06:53:03.671Z,80.90
2019-02-21T06:55:53.130Z,80.09
2019-02-21T06:58:47.263Z,79.84
2019-02-21T07:01:35.630Z,79.95
2019-02-21T07:04:24.109Z,79.15
2019-02-21T07:07:12.226Z,78.04
2019-02-21T07:10:02.881Z,76.98
2019-02-21T07:12:51.089Z,76.71
2019-02-21T07:15:39.698Z,75.55
2019-02-21T07:18:28.941Z,74.32
2019-02-21T07:21:19.911Z,73.25
2019-02-21T07:24:07.484Z,71.95
2019-02-21T07:26:55.959Z,70.48
2019-02-21T07:29:43.957Z,71.05
2019-02-21T07:32:32.600Z,71.19
2019-02-21T07:35:20.720Z,67.19
2019-02-21T07:38:08.139Z,64.42
2019-02-21T07:40:56.309Z,63.74
2019-02-21T07:43:44.159Z,63.01
2019-02-21T07:46:32.545Z,63.72
2019-02-21T07:49:20.952Z,62.38
2019-02-21T07:52:09.409Z,61.95
2019-02-21T07:55:01.824Z,62.32
2019-02-21T07:57:47.244Z,62.01
2019-02-21T08:00:35.724Z,61.31
2019-02-21T08:03:31.912Z,61.59
2019-02-21T08:06:13.399Z,61.96
2019-02-21T08:09:01.169Z,59.14
2019-02-21T08:11:48.614Z,59.26
2019-02-21T08:14:36.662Z,56.95
2019-02-21T08:17:27.764Z,56.48
2019-02-21T08:20:14.546Z,55.61
2019-02-21T08:23:03.094Z,54.46
2019-02-21T08:25:51.316Z,54.55
2019-02-21T08:28:39.391Z,54.24
2019-02-21T08:31:27.796Z,54.37
2019-02-21T08:34:28.883Z,54.08
2019-02-21T08:37:16.940Z,53.71
2019-02-21T08:40:05.091Z,54.21
2019-02-21T08:42:53.136Z,54.49
2019-02-21T08:45:40.889Z,53.81
2019-02-21T08:48:29.302Z,53.39
2019-02-21T08:51:18.508Z,53.13
2019-02-21T08:54:06.837Z,53.45
2019-02-21T08:56:55.171Z,51.57
2019-02-21T08:59:43.563Z,52.24
2019-02-21T09:02:32.031Z,52.03
2019-02-21T09:05:20.482Z,52.73
2019-02-21T09:08:08.584Z,53.25
2019-02-21T09:10:56.927Z,52.26
2019-02-21T09:13:45.086Z,52.08
2019-02-21T09:16:33.371Z,51.24
2019-02-21T09:19:20.988Z,52.16
2019-02-21T09:22:09.464Z,50.71
2019-02-21T09:24:57.851Z,50.78
2019-02-21T09:27:46.246Z,51.57
2019-02-21T09:30:34.046Z,51.25
2019-02-21T09:33:21.977Z,50.73
2019-02-21T09:36:10.319Z,51.01
2019-02-21T09:38:58.326Z,51.39
2019-02-21T09:41:46.344Z,49.23
2019-02-21T09:44:35.884Z,49.72
2019-02-21T09:47:24.759Z,49.42
2019-02-21T09:50:13.451Z,49.56
2019-02-21T09:53:01.722Z,48.73
2019-02-21T09:55:50.436Z,49.24
2019-02-21T09:58:39.070Z,49.73
2019-02-21T10:01:27.027Z,50.43
2019-02-21T10:04:14.538Z,48.15
2019-02-21T10:07:02.230Z,46.90
2019-02-21T10:09:50.478Z,48.11
2019-02-21T10:12:38.446Z,48.23
2019-02-21T10:15:26.158Z,48.36
2019-02-21T10:18:14.223Z,48.38
2019-02-21T10:21:02.965Z,48.05
2019-02-21T10:23:51.251Z,49.16
2019-02-21T10:26:38.810Z,48.87
2019-02-21T10:29:29.701Z,46.75
2019-02-21T10:32:16.699Z,46.89
2019-02-21T10:35:05.505Z,47.49
2019-02-21T10:37:53.799Z,46.96
2019-02-21T10:40:42.130Z,46.08
2019-02-21T10:43:30.214Z,45.86
2019-02-21T10:46:18.734Z,45.88
2019-02-21T10:49:06.196Z,45.68
2019-02-21T10:51:54.276Z,44.48
2019-02-21T10:54:41.731Z,43.83
2019-02-21T10:57:29.852Z,44.78
2019-02-21T11:00:19.644Z,43.47
2019-02-21T11:03:07.246Z,43.12
2019-02-21T11:05:55.671Z,43.72
2019-02-21T11:08:44.059Z,44.74
2019-02-21T11:11:32.599Z,43.46
2019-02-21T11:14:20.927Z,41.46
2019-02-21T11:17:08.988Z,42.43
2019-02-21T11:19:56.608Z,43.76
2019-02-21T11:22:44.620Z,43.53
2019-02-21T11:25:32.957Z,43.63
2019-02-21T11:28:21.424Z,42.96
2019-02-21T11:31:09.501Z,42.62
2019-02-21T11:33:57.627Z,43.52
2019-02-21T11:36:45.901Z,42.56
2019-02-21T11:39:34.027Z,42.49
2019-02-21T11:42:22.021Z,43.42
2019-02-21T11:45:11.647Z,44.26
2019-02-21T11:47:59.750Z,41.94
2019-02-21T11:50:48.195Z,40.90
2019-02-21T11:53:38.210Z,43.45
2019-02-21T11:56:25.753Z,43.31
2019-02-21T11:59:16.059Z,44.08
2019-02-21T12:02:03.352Z,43.69
2019-02-21T12:04:51.240Z,42.16
2019-02-21T12:07:39.638Z,43.11
2019-02-21T12:10:28.085Z,43.15
2019-02-21T12:13:16.600Z,42.65
2019-02-21T12:16:04.957Z,42.88
2019-02-21T12:18:52.798Z,43.47
2019-02-21T12:21:41.230Z,42.90
2019-02-21T12:24:29.097Z,42.88
2019-02-21T12:27:17.498Z,43.87
2019-02-21T12:30:06.028Z,43.42
2019-02-21T12:32:54.470Z,43.41
2019-02-21T12:35:42.674Z,43.63
2019-02-21T12:38:31.259Z,44.16
2019-02-21T12:41:19.146Z,43.81
2019-02-21T12:44:07.197Z,43.62
2019-02-21T12:46:55.686Z,43.62
2019-02-21T12:49:44.238Z,43.69
2019-02-21T12:52:31.766Z,43.05
2019-02-21T12:55:27.577Z,43.52
2019-02-21T12:58:09.459Z,43.52
2019-02-21T13:00:39.199Z,42.89
2019-02-21T13:03:08.942Z,42.40
2019-02-21T13:05:41.275Z,42.85
2019-02-21T13:08:10.105Z,41.98
2019-02-21T13:10:39.844Z,42.82
2019-02-21T13:13:09.686Z,42.32
2019-02-21T13:15:39.422Z,43.03
2019-02-21T13:18:15.869Z,42.43
2019-02-21T13:20:40.583Z,42.74
2019-02-21T13:23:10.327Z,42.92
2019-02-21T13:25:40.163Z,41.79
2019-02-21T13:28:10.004Z,41.52
2019-02-21T13:30:39.739Z,42.11
2019-02-21T13:33:11.054Z,41.52
2019-02-21T13:35:52.176Z,40.34
2019-02-21T13:38:14.514Z,39.60
2019-02-21T13:40:45.360Z,39.74
2019-02-21T13:43:16.322Z,38.71
2019-02-21T13:45:48.288Z,38.88
2019-02-21T13:48:19.141Z,36.83
2019-02-21T13:50:50.038Z,36.19
2019-02-21T13:53:20.889Z,35.97
2019-02-21T13:55:51.741Z,35.64
2019-02-21T13:58:22.672Z,35.77
2019-02-21T14:00:53.536Z,35.19
2019-02-21T14:03:24.381Z,36.66
2019-02-21T14:06:03.206Z,35.21
2019-02-21T14:08:27.846Z,36.42
2019-02-21T14:10:58.724Z,36.07
2019-02-21T14:13:29.682Z,35.04
2019-02-21T14:16:00.535Z,34.86
2019-02-21T14:18:31.402Z,35.39
2019-02-21T14:21:02.309Z,35.69
2019-02-21T14:23:33.177Z,34.79
2019-02-21T14:26:04.160Z,36.77
2019-02-21T14:28:37.412Z,38.39
2019-02-21T14:31:07.595Z,40.31
2019-02-21T14:33:38.546Z,41.46
2019-02-21T14:36:15.484Z,40.41
2019-02-21T14:38:41.979Z,38.86
2019-02-21T14:41:12.925Z,37.00
2019-02-21T14:43:43.819Z,36.10
2019-02-21T14:46:14.699Z,35.73
2019-02-21T14:48:45.713Z,36.38
2019-02-21T14:51:16.569Z,37.27
2019-02-21T14:53:47.420Z,38.39
2019-02-21T14:56:20.048Z,41.10
2019-02-21T14:58:50.874Z,41.82
2019-02-21T15:01:21.737Z,42.05
2019-02-21T15:03:52.683Z,43.24
2019-02-21T15:06:26.983Z,43.54
2019-02-21T15:08:56.098Z,42.50
2019-02-21T15:11:28.829Z,43.02
2019-02-21T15:13:59.695Z,43.47
2019-02-21T15:16:30.700Z,44.79
2019-02-21T15:19:01.556Z,44.14
2019-02-21T15:21:32.448Z,43.73
2019-02-21T15:24:03.832Z,44.53
2019-02-21T15:26:34.805Z,44.38
2019-02-21T15:29:05.699Z,44.87
2019-02-21T15:31:36.588Z,45.00
2019-02-21T15:34:07.437Z,45.08
2019-02-21T15:36:38.725Z,45.39
2019-02-21T15:39:10.498Z,45.63
2019-02-21T15:41:41.394Z,45.88
2019-02-21T15:44:12.378Z,45.85
2019-02-21T15:46:43.256Z,46.15
2019-02-21T15:49:14.132Z,49.98
2019-02-21T15:51:45.060Z,45.43
2019-02-21T15:54:15.943Z,45.90
2019-02-21T15:56:46.890Z,45.67
2019-02-21T15:59:17.939Z,46.51
2019-02-21T16:01:48.818Z,47.29
2019-02-21T16:04:19.677Z,46.92
2019-02-21T16:06:51.798Z,45.90
2019-02-21T16:09:25.223Z,45.67
2019-02-21T16:11:55.630Z,45.41
2019-02-21T16:14:26.607Z,45.80
2019-02-21T16:16:57.503Z,45.75
2019-02-21T16:19:28.373Z,46.91
2019-02-21T16:21:59.362Z,46.34
2019-02-21T16:24:30.273Z,46.11
2019-02-21T16:27:01.247Z,47.13
2019-02-21T16:29:32.362Z,46.37
2019-02-21T16:32:03.521Z,47.48
2019-02-21T16:34:34.409Z,46.70
2019-02-21T16:37:05.321Z,47.22
2019-02-21T16:39:36.218Z,47.71
2019-02-21T16:42:07.105Z,47.51
2019-02-21T16:44:38.141Z,46.66
2019-02-21T16:47:09.035Z,47.44
2019-02-21T16:49:39.914Z,46.72
2019-02-21T16:52:10.868Z,47.26
2019-02-21T16:54:41.913Z,47.35
2019-02-21T16:57:12.789Z,46.72
2019-02-21T16:59:43.967Z,46.65
2019-02-21T17:02:14.871Z,48.31
2019-02-21T17:04:45.750Z,47.60
2019-02-21T17:07:20.253Z,47.49
2019-02-21T17:09:49.289Z,47.15
2019-02-21T17:12:20.454Z,47.63
2019-02-21T17:14:51.709Z,48.25
2019-02-21T17:17:22.600Z,47.56
2019-02-21T17:19:53.485Z,47.40
2019-02-21T17:22:24.492Z,48.04
2019-02-21T17:24:55.553Z,48.74
2019-02-21T17:27:27.414Z,49.66
2019-02-21T17:30:00.562Z,49.33
2019-02-21T17:32:31.441Z,50.29
2019-02-21T17:35:02.347Z,51.39
2019-02-21T17:37:33.306Z,51.75
2019-02-21T17:40:04.823Z,52.06
2019-02-21T17:42:35.746Z,54.54
2019-02-21T17:45:08.354Z,55.69
2019-02-21T17:47:39.371Z,56.08
2019-02-21T17:50:11.864Z,55.52
2019-02-21T17:52:42.802Z,55.44
2019-02-21T17:55:14.081Z,55.71
2019-02-21T17:57:45.088Z,55.10
2019-02-21T18:00:20.203Z,54.86
2019-02-21T18:02:53.967Z,55.02
2019-02-21T18:05:24.927Z,55.50
2019-02-21T18:07:55.792Z,55.85
2019-02-21T18:10:29.920Z,56.80
2019-02-21T18:13:01.012Z,59.66
2019-02-21T18:15:32.001Z,59.98
2019-02-21T18:18:02.878Z,61.41
2019-02-21T18:20:33.840Z,62.11
2019-02-21T18:23:04.711Z,62.32
2019-02-21T18:25:41.501Z,62.78
2019-02-21T18:28:12.540Z,63.20
2019-02-21T18:30:43.572Z,63.84
2019-02-21T18:33:14.675Z,64.16
2019-02-21T18:35:45.635Z,63.38
2019-02-21T18:38:16.561Z,63.76
2019-02-21T18:40:47.777Z,63.37
2019-02-21T18:43:18.897Z,64.97
2019-02-21T18:45:49.934Z,62.53
2019-02-21T18:48:21.104Z,63.15
2019-02-21T18:50:52.044Z,63.22
2019-02-21T18:53:23.161Z,64.93
2019-02-21T18:55:54.771Z,64.78
2019-02-21T18:58:27.283Z,65.21
2019-02-21T19:00:58.463Z,65.88
2019-02-21T19:03:29.742Z,65.43
2019-02-21T19:06:03.080Z,65.94
2019-02-21T19:08:36.115Z,67.78
2019-02-21T19:11:07.457Z,66.29
2019-02-21T19:13:38.911Z,66.62
2019-02-21T19:16:10.327Z,68.47
2019-02-21T19:18:43.760Z,68.29
2019-02-21T19:21:18.573Z,68.64
2019-02-21T19:23:50.946Z,68.62
2019-02-21T19:26:22.396Z,68.67
2019-02-21T19:28:54.315Z,69.74
2019-02-21T19:31:29.286Z,68.32
2019-02-21T19:34:02.169Z,69.61
2019-02-21T19:36:33.699Z,70.27
2019-02-21T19:39:06.828Z,69.82
2019-02-21T19:41:38.256Z,69.93
2019-02-21T19:44:10.010Z,68.69
2019-02-21T19:46:41.659Z,70.20
2019-02-21T19:49:13.523Z,69.73
2019-02-21T19:51:44.842Z,71.68
2019-02-21T19:54:15.780Z,71.71
2019-02-21T19:56:47.195Z,76.18
2019-02-21T19:59:20.152Z,73.32
2019-02-21T20:01:51.190Z,71.79
2019-02-21T20:04:22.890Z,71.92
2019-02-21T20:06:54.114Z,71.98
2019-02-21T20:09:25.133Z,72.12
2019-02-21T20:11:56.481Z,72.59
2019-02-21T20:14:27.356Z,71.82
2019-02-21T20:16:58.765Z,73.41
2019-02-21T20:19:29.890Z,73.17
2019-02-21T20:22:01.036Z,72.99
2019-02-21T20:24:34.068Z,73.67
2019-02-21T20:27:05.245Z,73.06
2019-02-21T20:29:36.670Z,73.24
2019-02-21T20:32:07.879Z,73.32
2019-02-21T20:34:38.834Z,73.22
2019-02-21T20:37:09.926Z,73.31
2019-02-21T20:39:40.791Z,74.05
2019-02-21T20:42:11.759Z,74.53
2019-02-21T20:44:44.234Z,75.40
2019-02-21T20:47:15.417Z,76.76
2019-02-21T20:49:46.797Z,76.56
2019-02-21T20:52:17.928Z,76.96
2019-02-21T20:54:48.800Z,76.20
2019-02-21T20:57:19.869Z,76.04
2019-02-21T21:00:11.084Z,76.91
2019-02-21T21:03:00.996Z,78.22
2019-02-21T21:05:50.331Z,76.88
2019-02-21T21:08:44.262Z,77.35
2019-02-21T21:11:30.696Z,77.41
2019-02-21T21:14:20.264Z,78.63
2019-02-21T21:17:09.777Z,78.44
2019-02-21T21:19:59.206Z,79.56
2019-02-21T21:22:48.619Z,79.39
2019-02-21T21:25:38.156Z,79.86
2019-02-21T21:28:27.584Z,78.23
2019-02-21T21:31:17.890Z,79.11
2019-02-21T21:34:08.546Z,77.41
2019-02-21T21:36:57.965Z,78.18
2019-02-21T21:39:47.465Z,78.95
2019-02-21T21:42:36.753Z,77.48
2019-02-21T21:45:26.201Z,77.79
2019-02-21T21:48:15.731Z,76.88
2019-02-21T21:51:07.359Z,78.66
2019-02-21T21:53:56.911Z,77.98
2019-02-21T21:56:46.085Z,78.49
2019-02-21T21:59:35.677Z,80.68
2019-02-21T22:02:27.375Z,81.36
2019-02-21T22:05:17.262Z,81.34
2019-02-21T22:08:06.428Z,81.31
2019-02-21T22:10:56.044Z,82.21
2019-02-21T22:13:45.856Z,81.69
2019-02-21T22:16:35.659Z,82.01
2019-02-21T22:19:25.360Z,82.50
2019-02-21T22:22:14.878Z,82.50
2019-02-21T22:25:04.348Z,81.86
2019-02-21T22:27:54.162Z,82.18
2019-02-21T22:30:43.573Z,82.09
2019-02-21T22:33:36.160Z,82.49
2019-02-21T22:36:25.700Z,81.97
2019-02-21T22:39:16.596Z,83.35
2019-02-21T22:42:05.987Z,82.44
2019-02-21T22:44:55.513Z,82.31
2019-02-21T22:47:44.529Z,81.81
2019-02-21T22:50:34.310Z,82.76
2019-02-21T22:53:23.495Z,82.28
2019-02-21T22:56:13.562Z,82.51
2019-02-21T22:59:03.160Z,83.08
2019-02-21T23:01:53.137Z,83.29
2019-02-21T23:05:01.147Z,83.37
2019-02-21T23:07:59.734Z,83.03
2019-02-21T23:10:51.376Z,84.71
2019-02-21T23:13:40.344Z,83.73
2019-02-21T23:16:29.956Z,83.88
2019-02-21T23:19:19.700Z,84.62
2019-02-21T23:22:09.406Z,84.10
2019-02-21T23:24:58.659Z,83.65
2019-02-21T23:27:48.022Z,83.96
2019-02-21T23:30:37.547Z,83.73
2019-02-21T23:33:27.451Z,83.90
2019-02-21T23:36:17.185Z,84.33
2019-02-21T23:39:07.856Z,85.07
2019-02-21T23:41:57.542Z,83.90
2019-02-21T23:44:47.281Z,85.48
2019-02-21T23:47:36.947Z,85.49
2019-02-21T23:50:26.165Z,86.03
2019-02-21T23:53:15.850Z,85.76
2019-02-21T23:56:05.364Z,85.58
2019-02-21T23:58:55.013Z,85.12
